Airfield :







YOU CAN JOIN US ON...

 
LOGIN :

Register | Disclaimer

   EN    FR    IT 

 









Legend :    VFR   Marginal VFR   IFR   Intensive IFR   Very Intensive IFR
Visi :
Ceiling :
>= 8 km
>= 3000ft
5 to 8 km
1000 to 3000 ft
1500m to 5 km
500 to 1000 ft
800 to 1500m
200 to 500 ft
< 800m
< 200 ft
Symbols :   Thunderstorms  Fog  Heavy snow  Heavy precipitations  Wind > 20 kt






- Airport Elevation : 92 ft
- IATA code : YZX


CYZX - CFB Greenwood

CURRENT METAR :
  • 070100Z 27009KT 15SM FEW100 07/M03 A2973 RMK AC2 SLP070

EXPIRED METARs :
  • 070000Z 27012KT 15SM SCT100 07/M02 A2972 RMK AC4 SLP064
  • 062300Z 27015KT 15SM FEW020 08/M03 A2970 RMK SC2 SLP059

TAF TAF CYZX
Valid from the 07 at 00:00 until the 08 at 00:00 UTC


062330Z 0700/0724 27015G25KT P6SM FEW020 SCT050
BECMG 0700/0702 30012G22KT BKN050
FM070200 32012G22KT P6SM BKN050
TEMPO 0702/0705 P6SM -SHRA
FM070500 31010G20KT P6SM BKN040
TEMPO 0705/0707 P6SM -SHSN
FM070700 30012KT P6SM SCT025
TEMPO 0707/0714 P6SM -SHSN BKN025
FM071400 30010KT P6SM BKN040 RMK NXT FCST BY 070600Z



MET'MAP, your aeronautical weather chart ! - Copyright ORBIFLY December 2007 - Disclaimer

ORBIFLY MET'MAP TEAM :

Programming & Development : Alexandra Zaïnal
Concept & original design : Baudouin d'Aumeries
Assistance for programming : Marc-Olivier Méhu
Technical & hardware support : Manuel Goepfert

Contact : metmap@orbifly.com




SOURCES & CREDITS :

   NOAA